Time;durP1;ratioP1;P1;durP2;ratioP2;P2;SDS_P1;SDS_P2;PMS_P1;PMS_P2;Temp;Humidity;BMP_temperature;BMP_pressure;BME280_temperature;BME280_humidity;BME280_pressure;Samples;Min_cycle;Max_cycle;Signal;HPM_P1;HPM_P2
2022/09/12 00:00:28;;;;;;;3.40;2.97;;;18.60;66.60;;;;;;5047765;28;20044;-75
2022/09/12 00:02:54;;;;;;;4.13;3.25;;;18.70;66.90;;;;;;5060456;28;20028;-74
2022/09/12 00:05:21;;;;;;;4.05;2.83;;;18.70;67.00;;;;;;5048226;28;20033;-73
2022/09/12 00:07:48;;;;;;;3.75;3.45;;;18.60;66.90;;;;;;5049349;28;20116;-74
2022/09/12 00:10:14;;;;;;;3.35;3.03;;;18.60;66.90;;;;;;5053283;28;20078;-73
2022/09/12 00:12:40;;;;;;;4.50;4.03;;;18.60;67.00;;;;;;5047395;28;20041;-73
2022/09/12 00:15:10;;;;;;;3.67;2.95;;;18.60;67.00;;;;;;5047447;28;20040;-75
2022/09/12 00:17:37;;;;;;;3.40;3.10;;;18.60;67.00;;;;;;5032883;28;20064;-75
2022/09/12 00:20:06;;;;;;;3.22;2.90;;;18.60;67.10;;;;;;5045986;28;20036;-73
2022/09/12 00:22:32;;;;;;;4.18;3.10;;;18.60;67.10;;;;;;5048976;28;20040;-73
2022/09/12 00:24:58;;;;;;;3.50;3.20;;;18.60;67.10;;;;;;5047372;28;20391;-74
2022/09/12 00:27:24;;;;;;;4.05;3.05;;;18.60;67.20;;;;;;5048052;28;20037;-74
2022/09/12 00:29:50;;;;;;;4.38;3.75;;;18.50;67.10;;;;;;5048763;28;20040;-74
2022/09/12 00:32:16;;;;;;;3.65;3.30;;;18.50;67.10;;;;;;5064366;28;20062;-74
2022/09/12 00:34:42;;;;;;;6.13;3.78;;;18.50;67.20;;;;;;5051039;28;20044;-73
2022/09/12 00:37:08;;;;;;;3.47;3.17;;;18.50;67.20;;;;;;5038695;28;20039;-73
2022/09/12 00:39:33;;;;;;;3.45;2.97;;;18.50;67.30;;;;;;5045939;28;20032;-74
2022/09/12 00:42:00;;;;;;;3.75;3.10;;;18.50;67.40;;;;;;5048386;28;20040;-75
2022/09/12 00:44:25;;;;;;;3.92;2.75;;;18.50;67.40;;;;;;5057974;28;20022;-74
2022/09/12 00:46:57;;;;;;;3.53;3.20;;;18.50;67.50;;;;;;5044486;28;20064;-73
2022/09/12 00:49:31;;;;;;;3.77;3.37;;;18.50;67.50;;;;;;5046236;28;20027;-75
2022/09/12 00:52:04;;;;;;;3.20;2.90;;;18.50;67.50;;;;;;5047253;28;20258;-74
2022/09/12 00:54:35;;;;;;;3.35;3.05;;;18.40;67.40;;;;;;5050993;28;20048;-75
2022/09/12 00:57:08;;;;;;;3.67;3.15;;;18.40;68.10;;;;;;5047402;28;20064;-74
2022/09/12 00:59:44;;;;;;;3.80;2.90;;;18.40;67.50;;;;;;5032447;28;20036;-74
2022/09/12 01:02:11;;;;;;;3.33;3.03;;;18.40;67.50;;;;;;5028062;28;20033;-74
2022/09/12 01:04:39;;;;;;;3.95;3.10;;;18.40;67.60;;;;;;5057249;28;20657;-74
2022/09/12 01:07:07;;;;;;;3.80;3.42;;;18.40;67.60;;;;;;5045668;28;20037;-74
2022/09/12 01:09:35;;;;;;;4.22;3.65;;;18.40;67.70;;;;;;5035512;28;20028;-75
2022/09/12 01:12:02;;;;;;;3.50;3.20;;;18.30;67.60;;;;;;5048323;28;20041;-75
2022/09/12 01:14:30;;;;;;;3.30;3.00;;;18.40;67.80;;;;;;5047054;28;20043;-73
2022/09/12 01:16:57;;;;;;;4.15;3.20;;;18.30;67.70;;;;;;5039658;28;20037;-73
2022/09/12 01:19:30;;;;;;;5.22;4.70;;;18.30;67.70;;;;;;5039491;28;20078;-75
2022/09/12 01:22:20;;;;;;;5.13;3.30;;;18.30;67.70;;;;;;5045152;28;20033;-73
2022/09/12 01:25:18;;;;;;;3.20;2.85;;;18.30;67.90;;;;;;5046357;28;20037;-75
2022/09/12 01:27:59;;;;;;;4.25;3.28;;;18.30;67.90;;;;;;5040768;28;20041;-73
2022/09/12 01:30:43;;;;;;;3.38;3.08;;;18.30;67.90;;;;;;5047692;28;20590;-74
2022/09/12 01:33:27;;;;;;;5.65;3.08;;;18.30;67.90;;;;;;5044406;28;20055;-74
2022/09/12 01:36:23;;;;;;;3.95;2.75;;;18.30;68.00;;;;;;5042436;28;20036;-74
2022/09/12 01:39:17;;;;;;;3.55;3.25;;;18.20;67.80;;;;;;5037937;28;20041;-75
2022/09/12 01:41:53;;;;;;;3.10;2.72;;;18.20;67.80;;;;;;5052020;28;20032;-74
2022/09/12 01:44:37;;;;;;;4.10;3.03;;;18.30;68.00;;;;;;5055112;28;21384;-74
2022/09/12 01:47:34;;;;;;;3.67;2.97;;;18.20;67.90;;;;;;5044638;28;20059;-74
2022/09/12 01:50:18;;;;;;;3.92;2.95;;;18.20;68.00;;;;;;5050688;28;20041;-74
2022/09/12 01:52:53;;;;;;;3.15;2.85;;;18.30;68.10;;;;;;5049592;28;20025;-74
2022/09/12 01:55:34;;;;;;;3.42;3.13;;;18.20;68.00;;;;;;5046225;28;20684;-74
2022/09/12 01:58:18;;;;;;;3.03;2.75;;;18.20;68.00;;;;;;5056468;28;20039;-74
2022/09/12 02:01:01;;;;;;;3.67;2.72;;;18.20;68.10;;;;;;5064288;28;20029;-74
2022/09/12 02:03:30;;;;;;;;;;;18.20;68.10;;;;;;5045019;28;20058;-75
2022/09/12 02:06:05;;;;;;;4.22;2.60;;;18.20;68.00;;;;;;5048730;28;20304;-74
2022/09/12 02:08:40;;;;;;;3.33;2.78;;;18.20;68.00;;;;;;5047681;28;20056;-75
2022/09/12 02:11:09;;;;;;;2.70;2.50;;;18.20;68.10;;;;;;5047265;28;20028;-75
2022/09/12 02:13:56;;;;;;;2.42;2.20;;;18.20;68.10;;;;;;5042421;28;20025;-74
2022/09/12 02:16:34;;;;;;;2.72;2.53;;;18.20;68.30;;;;;;5015834;28;20359;-74
2022/09/12 02:19:15;;;;;;;2.42;2.22;;;18.20;68.30;;;;;;5047128;28;20206;-74
2022/09/12 02:21:49;;;;;;;3.25;2.50;;;18.20;68.30;;;;;;5048081;28;20139;-74
2022/09/12 02:24:16;;;;;;;4.13;3.33;;;18.10;68.20;;;;;;5040562;28;20028;-74
2022/09/12 02:27:03;;;;;;;3.10;2.50;;;18.20;68.40;;;;;;5047144;28;20033;-73
2022/09/12 02:29:29;;;;;;;3.53;2.92;;;18.20;68.50;;;;;;5041305;28;20037;-74
2022/09/12 02:32:04;;;;;;;2.95;2.65;;;18.20;68.40;;;;;;5048409;28;20119;-74
2022/09/12 02:34:38;;;;;;;4.25;2.70;;;18.10;68.30;;;;;;5040307;28;20037;-75
2022/09/12 02:37:24;;;;;;;3.20;2.90;;;18.20;68.50;;;;;;5045079;28;20021;-74
2022/09/12 02:39:54;;;;;;;2.78;2.42;;;18.20;68.60;;;;;;5049619;28;20021;-74
2022/09/12 02:42:23;;;;;;;3.30;2.90;;;18.20;68.60;;;;;;5053510;28;20044;-74
2022/09/12 02:44:51;;;;;;;3.17;2.80;;;18.20;68.60;;;;;;5067251;28;20275;-74
2022/09/12 02:47:28;;;;;;;2.85;2.60;;;18.20;68.60;;;;;;5058913;28;20497;-74
2022/09/12 02:50:04;;;;;;;2.97;2.78;;;18.10;68.50;;;;;;5050835;28;20116;-74
2022/09/12 02:52:30;;;;;;;7.75;3.70;;;18.20;68.70;;;;;;5043167;28;20048;-74
2022/09/12 02:55:00;;;;;;;3.63;3.15;;;18.20;68.70;;;;;;5056434;28;20040;-74
2022/09/12 02:57:29;;;;;;;4.40;3.00;;;18.10;68.60;;;;;;5043240;28;20037;-75
2022/09/12 03:00:00;;;;;;;4.10;3.25;;;18.10;68.70;;;;;;5067054;28;20024;-74
2022/09/12 03:03:04;;;;;;;7.00;3.83;;;18.10;68.80;;;;;;5056598;28;20036;-74
2022/09/12 03:05:33;;;;;;;3.13;2.88;;;18.10;68.90;;;;;;5025906;28;20061;-74
2022/09/12 03:08:08;;;;;;;3.03;2.83;;;18.10;68.80;;;;;;5048107;28;20123;-74
2022/09/12 03:11:20;;;;;;;5.57;3.65;;;18.10;68.90;;;;;;5045184;28;20060;-74
2022/09/12 03:14:01;;;;;;;3.97;2.85;;;18.10;69.00;;;;;;5058283;28;20045;-73
2022/09/12 03:16:33;;;;;;;3.80;3.35;;;18.10;68.90;;;;;;5052723;28;20021;-74
2022/09/12 03:19:11;;;;;;;2.50;2.25;;;18.10;69.00;;;;;;5050333;28;20033;-74
2022/09/12 03:22:08;;;;;;;3.30;3.00;;;18.10;69.00;;;;;;5052194;28;20033;-73
2022/09/12 03:25:04;;;;;;;3.60;3.30;;;18.10;69.00;;;;;;5072994;28;20742;-74
2022/09/12 03:28:06;;;;;;;4.47;3.25;;;18.10;69.00;;;;;;5062329;28;20596;-74
2022/09/12 03:30:41;;;;;;;3.17;2.70;;;18.10;69.10;;;;;;5052170;28;20045;-73
2022/09/12 03:33:11;;;;;;;5.82;2.95;;;18.10;69.00;;;;;;5063788;28;20032;-75
2022/09/12 03:35:38;;;;;;;3.72;2.70;;;18.10;69.00;;;;;;5044062;28;20032;-73
2022/09/12 03:38:07;;;;;;;4.07;2.30;;;18.10;69.10;;;;;;5045654;28;20029;-75
2022/09/12 03:40:35;;;;;;;3.13;2.70;;;18.10;69.10;;;;;;5053107;28;20036;-74
2022/09/12 03:43:03;;;;;;;2.70;2.50;;;18.10;69.10;;;;;;5054271;28;20033;-73
2022/09/12 03:45:30;;;;;;;3.38;2.47;;;18.10;69.20;;;;;;5052389;28;20114;-73
2022/09/12 03:47:56;;;;;;;2.50;2.30;;;18.10;69.20;;;;;;5043120;28;20136;-75
2022/09/12 03:50:25;;;;;;;2.40;2.03;;;18.10;69.20;;;;;;5057907;28;20081;-75
2022/09/12 03:52:51;;;;;;;2.65;2.40;;;18.10;69.30;;;;;;5063224;28;20131;-75
2022/09/12 03:55:17;;;;;;;3.55;2.42;;;18.10;69.30;;;;;;5073876;28;20115;-75
2022/09/12 03:57:44;;;;;;;2.67;2.30;;;18.10;69.40;;;;;;5058894;28;20276;-74
2022/09/12 04:00:15;;;;;;;2.72;2.53;;;18.10;69.40;;;;;;5060317;28;20100;-74
2022/09/12 04:02:43;;;;;;;4.07;2.53;;;18.10;69.50;;;;;;5063448;28;20093;-75
2022/09/12 04:05:09;;;;;;;2.60;2.35;;;18.10;69.50;;;;;;5056947;28;20552;-75
2022/09/12 04:07:34;;;;;;;3.55;2.13;;;18.00;69.40;;;;;;5068464;28;20055;-74
2022/09/12 04:10:01;;;;;;;3.22;2.30;;;18.00;69.40;;;;;;5050101;28;20040;-75
2022/09/12 04:12:29;;;;;;;3.05;2.30;;;18.00;69.50;;;;;;5052326;28;20032;-75
2022/09/12 04:14:56;;;;;;;3.97;2.65;;;18.00;69.50;;;;;;5049410;28;20125;-75
2022/09/12 04:17:23;;;;;;;2.42;2.22;;;18.00;69.60;;;;;;5050987;28;20083;-74
2022/09/12 04:19:50;;;;;;;2.40;2.20;;;18.00;69.60;;;;;;5051821;28;20088;-75
2022/09/12 04:22:16;;;;;;;2.33;2.03;;;18.00;69.70;;;;;;5053737;28;20047;-74
2022/09/12 04:24:45;;;;;;;3.42;2.20;;;17.90;69.60;;;;;;5053105;28;20041;-74
2022/09/12 04:27:11;;;;;;;2.28;1.90;;;17.90;69.60;;;;;;5063564;28;20037;-74
2022/09/12 04:29:37;;;;;;;2.38;2.17;;;18.00;69.90;;;;;;5034427;28;20037;-75
2022/09/12 04:32:06;;;;;;;2.92;2.60;;;17.90;69.70;;;;;;5058211;28;20359;-75
2022/09/12 04:34:34;;;;;;;11.50;3.33;;;17.90;69.80;;;;;;5047425;28;20044;-74
2022/09/12 04:37:05;;;;;;;2.63;2.08;;;17.90;69.80;;;;;;5053754;28;20043;-74
2022/09/12 04:39:33;;;;;;;3.33;2.05;;;17.90;69.80;;;;;;5050750;28;20045;-75
2022/09/12 04:41:59;;;;;;;2.10;2.00;;;17.90;69.90;;;;;;5059182;28;20029;-75
2022/09/12 04:44:24;;;;;;;2.20;1.95;;;17.90;69.90;;;;;;5066389;28;20480;-74
2022/09/12 04:46:51;;;;;;;2.08;1.75;;;17.90;70.00;;;;;;5064514;28;20482;-74
2022/09/12 04:49:18;;;;;;;2.30;2.10;;;17.90;70.00;;;;;;5043321;28;20523;-74
2022/09/12 04:51:46;;;;;;;2.78;2.13;;;17.90;70.00;;;;;;5051371;28;20553;-76
2022/09/12 04:54:16;;;;;;;2.88;2.30;;;17.90;70.10;;;;;;5045839;28;20256;-74
2022/09/12 04:56:44;;;;;;;2.30;2.05;;;17.90;70.10;;;;;;5051482;28;20047;-74
2022/09/12 04:59:12;;;;;;;3.70;2.83;;;17.80;69.90;;;;;;5047140;28;20029;-74
2022/09/12 05:01:40;;;;;;;4.68;2.13;;;17.80;69.90;;;;;;5048359;28;20066;-75
2022/09/12 05:04:08;;;;;;;2.50;2.08;;;17.90;70.10;;;;;;5049351;28;20072;-74
2022/09/12 05:06:35;;;;;;;3.35;2.40;;;17.80;70.00;;;;;;5045912;28;20036;-75
2022/09/12 05:09:04;;;;;;;1.88;1.77;;;17.80;70.10;;;;;;5048690;28;20045;-74
2022/09/12 05:11:32;;;;;;;2.20;2.00;;;17.80;70.20;;;;;;5031357;28;20037;-74
2022/09/12 05:14:02;;;;;;;2.42;2.10;;;17.70;70.10;;;;;;5047447;28;20053;-75
2022/09/12 05:16:31;;;;;;;1.90;1.80;;;17.70;70.10;;;;;;5044650;28;20021;-75
2022/09/12 05:18:58;;;;;;;2.00;1.85;;;17.70;70.20;;;;;;5047749;28;20083;-73
2022/09/12 05:21:28;;;;;;;2.40;1.88;;;17.70;70.20;;;;;;5044851;28;20026;-74
2022/09/12 05:23:58;;;;;;;3.28;2.35;;;17.70;70.30;;;;;;5053449;28;20502;-75
2022/09/12 05:26:27;;;;;;;2.25;2.05;;;17.60;70.20;;;;;;5039749;28;20386;-74
2022/09/12 05:28:54;;;;;;;4.00;1.77;;;17.60;70.20;;;;;;5053730;28;20039;-75
2022/09/12 05:31:23;;;;;;;2.83;1.80;;;17.60;70.30;;;;;;5046866;28;20507;-75
2022/09/12 05:33:51;;;;;;;2.30;2.10;;;17.60;70.40;;;;;;5044907;28;20098;-75
2022/09/12 05:36:22;;;;;;;2.60;1.80;;;17.60;70.40;;;;;;5041009;28;20034;-75
2022/09/12 05:38:49;;;;;;;3.00;1.83;;;17.60;70.50;;;;;;5055513;28;20050;-74
2022/09/12 05:41:17;;;;;;;2.53;1.92;;;17.50;70.30;;;;;;5015301;28;20548;-74
2022/09/12 05:43:45;;;;;;;2.05;1.95;;;17.50;70.40;;;;;;5040577;28;20036;-74
2022/09/12 05:46:17;;;;;;;2.15;1.92;;;17.50;70.50;;;;;;5041451;28;20045;-74
2022/09/12 05:48:47;;;;;;;2.58;2.13;;;17.50;70.50;;;;;;5056005;28;20044;-75
2022/09/12 05:51:20;;;;;;;2.20;1.83;;;17.50;70.50;;;;;;5054412;28;20679;-75
2022/09/12 05:53:57;;;;;;;2.35;2.10;;;17.50;70.50;;;;;;5049065;28;20075;-74
2022/09/12 05:56:26;;;;;;;1.98;1.88;;;17.50;70.60;;;;;;5053341;28;20035;-75
2022/09/12 05:59:03;;;;;;;2.50;2.15;;;17.50;70.50;;;;;;5048135;28;20672;-75
2022/09/12 06:01:32;;;;;;;2.55;2.13;;;17.50;70.60;;;;;;5063877;28;20021;-73
2022/09/12 06:03:59;;;;;;;2.95;2.10;;;17.50;70.50;;;;;;5049032;28;20052;-76
2022/09/12 06:06:27;;;;;;;3.15;1.88;;;17.50;70.60;;;;;;5046837;28;20037;-76
2022/09/12 06:08:56;;;;;;;3.42;2.35;;;17.50;70.50;;;;;;5048379;28;20044;-76
2022/09/12 06:11:28;;;;;;;2.35;1.67;;;17.50;70.60;;;;;;5050421;28;20017;-74
2022/09/12 06:13:56;;;;;;;2.30;2.00;;;17.50;70.60;;;;;;5046893;28;20032;-76
2022/09/12 06:16:25;;;;;;;2.13;1.65;;;17.50;70.60;;;;;;5056514;28;20384;-74
2022/09/12 06:19:03;;;;;;;2.83;2.28;;;17.50;70.60;;;;;;5044880;28;20082;-75
2022/09/12 06:21:34;;;;;;;2.65;1.83;;;17.50;70.60;;;;;;5040005;28;20041;-74
2022/09/12 06:24:01;;;;;;;2.55;2.20;;;17.50;70.60;;;;;;5050373;28;20362;-74
2022/09/12 06:26:28;;;;;;;3.30;3.00;;;17.50;70.60;;;;;;5047054;28;20079;-75
2022/09/12 06:28:56;;;;;;;4.32;3.38;;;17.60;71.00;;;;;;5056341;28;20443;-77
2022/09/12 06:31:28;;;;;;;5.30;2.95;;;17.60;71.70;;;;;;5046070;28;20465;-76
2022/09/12 06:33:56;;;;;;;7.97;3.50;;;17.80;72.90;;;;;;5056733;28;20032;-77
2022/09/12 06:36:24;;;;;;;3.33;3.03;;;17.90;73.30;;;;;;5028451;28;20036;-80
2022/09/12 06:39:05;;;;;;;3.33;2.75;;;18.00;73.80;;;;;;5043963;28;20102;-75
2022/09/12 06:41:33;;;;;;;3.28;2.92;;;18.20;74.50;;;;;;5045658;28;20021;-75
2022/09/12 06:44:01;;;;;;;2.72;2.50;;;18.20;74.10;;;;;;5045209;28;20037;-74
2022/09/12 06:46:32;;;;;;;2.72;2.40;;;18.30;74.20;;;;;;5031082;28;20045;-74
2022/09/12 06:48:59;;;;;;;2.47;2.22;;;18.30;74.10;;;;;;5047937;28;20032;-74
2022/09/12 06:51:27;;;;;;;2.78;2.25;;;18.40;74.20;;;;;;5050159;28;20271;-73
2022/09/12 06:53:56;;;;;;;2.70;2.45;;;18.40;74.10;;;;;;5062332;28;20036;-74
2022/09/12 06:56:25;;;;;;;2.65;2.45;;;18.50;74.30;;;;;;5049602;28;20033;-75
2022/09/12 06:58:52;;;;;;;4.07;2.25;;;18.50;74.70;;;;;;5048549;28;20033;-75
2022/09/12 07:01:30;;;;;;;2.85;2.10;;;18.50;74.00;;;;;;5057207;28;20019;-74
2022/09/12 07:03:58;;;;;;;2.83;2.38;;;18.60;74.20;;;;;;5043930;28;20045;-75
2022/09/12 07:06:34;;;;;;;3.40;2.40;;;18.60;74.10;;;;;;5055039;28;20378;-74
2022/09/12 07:09:03;;;;;;;2.60;2.22;;;18.60;74.00;;;;;;5045638;28;20421;-74
2022/09/12 07:11:32;;;;;;;4.00;1.85;;;18.60;73.90;;;;;;5043495;28;20017;-74
2022/09/12 07:14:00;;;;;;;3.10;2.65;;;18.70;73.90;;;;;;5047980;28;20082;-75
2022/09/12 07:16:27;;;;;;;2.22;2.10;;;18.70;73.80;;;;;;5048141;28;20021;-73
2022/09/12 07:18:56;;;;;;;2.33;2.15;;;18.80;73.90;;;;;;5047092;28;20043;-74
2022/09/12 07:21:22;;;;;;;2.95;2.42;;;18.90;73.90;;;;;;5035997;28;20025;-74
2022/09/12 07:23:50;;;;;;;2.38;2.17;;;18.90;73.90;;;;;;5064071;28;20020;-74
2022/09/12 07:26:17;;;;;;;2.58;2.38;;;19.00;73.80;;;;;;5056131;28;20035;-73
2022/09/12 07:28:43;;;;;;;3.10;2.40;;;19.10;73.80;;;;;;5063007;28;20032;-75
2022/09/12 07:31:12;;;;;;;2.42;2.20;;;19.20;73.70;;;;;;5054218;28;20492;-74
2022/09/12 07:33:39;;;;;;;2.58;2.38;;;19.30;73.60;;;;;;5059554;28;20033;-75
2022/09/12 07:36:09;;;;;;;3.78;2.40;;;19.40;73.60;;;;;;5054990;28;20029;-74
2022/09/12 07:38:35;;;;;;;3.22;2.63;;;19.50;73.50;;;;;;5045693;28;20465;-74
2022/09/12 07:41:19;;;;;;;4.20;2.60;;;19.60;73.40;;;;;;5053155;28;20029;-74
2022/09/12 07:43:46;;;;;;;4.03;2.67;;;19.80;73.60;;;;;;5040161;28;20081;-74
2022/09/12 07:46:14;;;;;;;4.20;3.22;;;19.90;73.40;;;;;;5048235;28;20025;-76
2022/09/12 07:48:40;;;;;;;3.33;2.80;;;20.00;73.40;;;;;;5044045;28;20123;-75
2022/09/12 07:51:09;;;;;;;2.97;2.40;;;20.10;73.30;;;;;;5049452;28;20029;-76
2022/09/12 07:53:40;;;;;;;2.55;2.35;;;20.20;73.20;;;;;;5049633;28;20037;-75
2022/09/12 07:56:09;;;;;;;3.60;2.80;;;20.20;73.00;;;;;;5056185;28;20492;-74
2022/09/12 07:58:36;;;;;;;7.25;3.13;;;20.30;73.00;;;;;;5018395;28;20033;-74
2022/09/12 08:01:12;;;;;;;4.35;2.97;;;20.40;73.10;;;;;;5062561;28;20033;-76
2022/09/12 08:03:41;;;;;;;3.33;2.65;;;20.40;73.00;;;;;;5047770;28;20324;-80
2022/09/12 08:06:08;;;;;;;4.50;2.83;;;20.50;73.00;;;;;;5037072;28;20025;-75
2022/09/12 08:08:35;;;;;;;2.70;2.47;;;20.50;72.80;;;;;;5073262;28;20104;-76
2022/09/12 08:11:04;;;;;;;3.97;2.65;;;20.70;73.00;;;;;;5059457;28;20033;-76
2022/09/12 08:13:32;;;;;;;4.35;2.55;;;20.80;72.90;;;;;;5050917;28;20156;-73
2022/09/12 08:15:59;;;;;;;3.88;2.75;;;20.90;72.90;;;;;;5061265;28;20037;-74
2022/09/12 08:18:27;;;;;;;3.67;2.78;;;21.00;72.80;;;;;;5060952;28;20016;-75
2022/09/12 08:21:01;;;;;;;3.58;2.97;;;21.10;72.80;;;;;;5053547;28;20151;-75
2022/09/12 08:23:28;;;;;;;3.65;2.72;;;21.20;72.80;;;;;;5031932;28;20560;-75
2022/09/12 08:25:58;;;;;;;4.25;2.90;;;21.20;72.60;;;;;;5041826;28;20352;-77
2022/09/12 08:28:25;;;;;;;3.08;2.75;;;21.30;72.50;;;;;;5030001;28;20070;-75
2022/09/12 08:30:52;;;;;;;3.85;2.70;;;21.40;72.50;;;;;;5043380;28;20042;-75
2022/09/12 08:33:18;;;;;;;4.38;2.88;;;21.60;72.50;;;;;;5046402;28;20468;-75
2022/09/12 08:35:44;;;;;;;5.40;2.80;;;21.70;72.50;;;;;;5057438;28;20029;-75
2022/09/12 08:38:11;;;;;;;2.78;2.33;;;21.80;72.30;;;;;;5042064;28;20455;-76
2022/09/12 08:40:56;;;;;;;3.40;3.10;;;21.90;72.20;;;;;;5043635;28;20029;-76
2022/09/12 08:43:48;;;;;;;3.60;2.83;;;22.10;72.30;;;;;;5056043;28;20099;-75
2022/09/12 08:46:30;;;;;;;3.15;2.53;;;22.10;71.90;;;;;;5049846;28;20048;-76
2022/09/12 08:48:59;;;;;;;7.30;3.95;;;22.20;71.90;;;;;;5045720;28;20540;-76
2022/09/12 08:51:28;;;;;;;4.07;3.10;;;22.30;71.90;;;;;;5043515;28;20047;-78
2022/09/12 08:53:56;;;;;;;5.18;3.00;;;22.40;71.90;;;;;;5031080;28;20043;-75
2022/09/12 08:56:25;;;;;;;5.03;3.03;;;22.40;71.70;;;;;;5046908;28;20383;-75
2022/09/12 08:58:50;;;;;;;7.13;3.38;;;22.50;71.60;;;;;;5024785;28;20045;-74
2022/09/12 09:01:24;;;;;;;5.10;4.00;;;22.60;71.70;;;;;;5047545;28;20032;-74
2022/09/12 09:04:23;;;;;;;5.80;3.72;;;22.70;71.70;;;;;;5051100;28;20079;-74
2022/09/12 09:07:29;;;;;;;7.63;3.50;;;22.80;71.60;;;;;;5040471;28;20037;-74
2022/09/12 09:10:12;;;;;;;5.32;2.97;;;22.80;71.30;;;;;;5046638;28;20558;-74
2022/09/12 09:12:47;;;;;;;3.75;3.10;;;22.90;71.30;;;;;;5043524;28;20078;-74
2022/09/12 09:15:43;;;;;;;7.22;3.42;;;22.90;71.20;;;;;;5044849;28;20048;-74
2022/09/12 09:18:09;;;;;;;6.07;3.20;;;23.00;71.10;;;;;;5032918;28;20051;-74
2022/09/12 09:21:02;;;;;;;4.93;2.80;;;23.00;71.10;;;;;;5048083;28;20025;-74
2022/09/12 09:23:52;;;;;;;3.80;3.42;;;23.00;70.90;;;;;;5030366;28;20058;-75
2022/09/12 09:26:29;;;;;;;5.57;3.22;;;23.10;71.00;;;;;;5049816;28;20094;-73
2022/09/12 09:28:55;;;;;;;3.92;2.85;;;23.10;70.90;;;;;;5043849;28;20559;-75
2022/09/12 09:31:23;;;;;;;4.20;3.00;;;23.20;71.40;;;;;;5042407;28;20087;-75
2022/09/12 09:33:54;;;;;;;4.35;2.80;;;23.20;70.60;;;;;;5056252;28;20041;-75
2022/09/12 09:36:39;;;;;;;3.60;3.03;;;23.30;70.60;;;;;;5043756;28;20028;-75
2022/09/12 09:39:19;;;;;;;3.38;2.53;;;23.40;70.50;;;;;;5049277;28;20106;-76
2022/09/12 09:42:05;;;;;;;6.03;2.63;;;23.50;70.50;;;;;;5049683;28;20036;-75
2022/09/12 09:44:31;;;;;;;4.82;2.72;;;23.50;70.30;;;;;;5045950;28;20051;-76
2022/09/12 09:47:00;;;;;;;4.97;2.70;;;23.50;70.30;;;;;;5044684;28;20071;-75
2022/09/12 09:49:30;;;;;;;4.10;2.60;;;23.50;70.20;;;;;;5044940;28;20024;-75
2022/09/12 09:51:58;;;;;;;2.55;2.35;;;23.50;70.20;;;;;;5044587;28;20028;-75
2022/09/12 09:54:47;;;;;;;3.40;2.42;;;23.50;70.20;;;;;;5060662;28;20059;-79
2022/09/12 09:57:51;;;;;;;4.70;2.47;;;23.50;70.10;;;;;;5049855;28;20033;-78
2022/09/12 10:00:23;;;;;;;4.03;2.38;;;23.60;70.10;;;;;;5003441;28;20045;-76
2022/09/12 10:03:13;;;;;;;2.35;2.15;;;23.70;70.20;;;;;;5022761;28;20107;-75
2022/09/12 10:05:55;;;;;;;5.22;2.58;;;23.80;70.10;;;;;;5047275;28;20037;-75
2022/09/12 10:08:31;;;;;;;6.40;2.58;;;23.90;70.00;;;;;;5028142;28;20453;-77
2022/09/12 10:11:16;;;;;;;4.18;2.60;;;24.10;70.10;;;;;;5045771;28;20043;-77
2022/09/12 10:13:59;;;;;;;4.85;2.08;;;24.20;70.00;;;;;;5038237;28;20021;-74
2022/09/12 10:16:32;;;;;;;4.05;2.10;;;24.40;69.80;;;;;;5057374;28;20056;-77
2022/09/12 10:18:59;;;;;;;;;;;24.50;69.50;;;;;;5046237;28;20039;-76
2022/09/12 10:21:31;;;;;;;2.97;1.70;;;24.70;69.50;;;;;;5048491;28;19913;-75
2022/09/12 10:24:18;;;;;;;3.63;2.20;;;24.90;69.50;;;;;;5051962;28;20063;-76
2022/09/12 10:26:54;;;;;;;3.42;2.40;;;25.00;69.20;;;;;;5049740;28;20041;-76
2022/09/12 10:29:25;;;;;;;2.25;1.83;;;25.10;68.90;;;;;;5049247;28;20033;-76
2022/09/12 10:31:55;;;;;;;3.30;2.05;;;25.30;68.70;;;;;;5060843;28;20593;-76
2022/09/12 10:34:29;;;;;;;3.17;2.10;;;25.30;68.40;;;;;;5062889;28;20024;-77
2022/09/12 10:37:15;;;;;;;2.15;1.83;;;25.40;68.20;;;;;;5037464;28;20071;-76
2022/09/12 10:39:48;;;;;;;3.55;2.22;;;25.50;68.10;;;;;;5039496;28;20025;-77
2022/09/12 10:42:14;;;;;;;4.40;2.08;;;25.50;67.90;;;;;;5049396;28;20039;-75
2022/09/12 10:44:53;;;;;;;2.30;2.10;;;25.60;67.80;;;;;;5034273;28;20554;-76
2022/09/12 10:47:23;;;;;;;2.42;1.50;;;25.60;67.60;;;;;;5029822;28;20046;-75
2022/09/12 10:49:49;;;;;;;3.03;1.88;;;25.70;67.60;;;;;;5052039;28;20467;-75
2022/09/12 10:52:23;;;;;;;3.30;2.10;;;25.80;67.50;;;;;;5044478;28;20025;-75
2022/09/12 10:54:50;;;;;;;3.25;1.80;;;25.90;67.20;;;;;;5052439;28;20043;-74
2022/09/12 10:57:51;;;;;;;2.60;2.33;;;26.00;67.00;;;;;;5056186;28;20036;-76
2022/09/12 11:00:19;;;;;;;4.55;1.90;;;26.20;66.50;;;;;;5063721;28;20037;-75
2022/09/12 11:02:57;;;;;;;3.90;2.10;;;26.50;66.20;;;;;;5041953;28;20348;-74
2022/09/12 11:05:56;;;;;;;2.47;1.98;;;26.70;65.50;;;;;;5047729;28;20403;-78
2022/09/12 11:08:29;;;;;;;4.25;2.42;;;27.00;65.00;;;;;;5050210;28;20045;-78
2022/09/12 11:11:35;;;;;;;2.75;1.85;;;27.30;64.60;;;;;;5050212;28;20024;-75
2022/09/12 11:14:02;;;;;;;2.30;1.60;;;27.60;64.00;;;;;;5023681;28;20053;-75
2022/09/12 11:16:51;;;;;;;3.75;2.03;;;27.80;63.70;;;;;;5048931;28;20051;-76
2022/09/12 11:20:06;;;;;;;3.05;1.52;;;28.00;63.20;;;;;;5046339;28;20025;-75
2022/09/12 11:23:14;;;;;;;1.90;1.52;;;28.20;62.80;;;;;;5055317;28;20746;-75
2022/09/12 11:25:47;;;;;;;3.45;1.80;;;28.40;62.60;;;;;;5054959;28;20033;-78
2022/09/12 11:28:29;;;;;;;2.42;1.63;;;28.40;62.30;;;;;;5053984;28;20052;-77
2022/09/12 11:31:05;;;;;;;1.80;1.25;;;28.50;62.10;;;;;;5052329;28;20036;-76
2022/09/12 11:33:43;;;;;;;1.83;1.48;;;28.60;61.90;;;;;;5050677;28;20033;-76
2022/09/12 11:36:39;;;;;;;4.45;1.83;;;28.70;61.60;;;;;;5045200;28;20041;-75
2022/09/12 11:39:14;;;;;;;2.13;1.15;;;28.70;61.30;;;;;;5044015;28;20051;-77
2022/09/12 11:41:48;;;;;;;2.40;1.55;;;28.90;61.30;;;;;;5049081;28;20402;-75
2022/09/12 11:44:27;;;;;;;3.08;1.55;;;28.90;61.10;;;;;;5055238;28;20040;-76
2022/09/12 11:46:53;;;;;;;2.30;1.30;;;29.00;60.80;;;;;;5041307;28;20045;-76
2022/09/12 11:49:46;;;;;;;2.22;1.75;;;29.10;60.70;;;;;;5048546;28;20041;-76
2022/09/12 11:52:22;;;;;;;2.53;1.80;;;29.20;60.30;;;;;;5051428;28;20033;-76
2022/09/12 11:55:09;;;;;;;1.58;1.40;;;29.30;60.20;;;;;;5045052;28;20407;-75
2022/09/12 11:57:55;;;;;;;5.30;1.73;;;29.30;59.90;;;;;;5048142;28;20031;-76
2022/09/12 12:00:29;;;;;;;2.92;1.30;;;29.40;59.60;;;;;;5060442;28;20050;-77
2022/09/12 12:03:11;;;;;;;2.75;1.60;;;29.50;59.80;;;;;;5059289;28;20029;-76
2022/09/12 12:06:04;;;;;;;2.38;1.48;;;29.50;59.60;;;;;;5048211;28;20472;-75
2022/09/12 12:08:39;;;;;;;2.30;1.50;;;29.50;59.40;;;;;;5036975;28;20321;-76
2022/09/12 12:11:09;;;;;;;3.13;1.33;;;29.60;59.50;;;;;;5037107;28;20455;-76
2022/09/12 12:13:43;;;;;;;2.33;1.30;;;29.60;59.40;;;;;;5044447;28;20030;-75
2022/09/12 12:16:39;;;;;;;3.17;1.50;;;29.70;59.20;;;;;;5049764;28;20031;-74
2022/09/12 12:19:13;;;;;;;2.38;1.35;;;29.70;58.80;;;;;;5041323;28;20086;-75
2022/09/12 12:21:42;;;;;;;3.08;1.77;;;29.80;58.70;;;;;;5056036;28;20027;-75
2022/09/12 12:24:11;;;;;;;2.35;1.55;;;29.90;58.60;;;;;;5048178;28;20029;-75
2022/09/12 12:26:42;;;;;;;1.90;1.20;;;30.00;58.50;;;;;;5046806;28;20033;-75
2022/09/12 12:29:20;;;;;;;1.50;1.27;;;30.00;58.00;;;;;;5057626;28;20676;-74
2022/09/12 12:31:59;;;;;;;3.33;1.42;;;30.20;57.90;;;;;;5050095;28;20033;-75
2022/09/12 12:34:32;;;;;;;2.88;1.10;;;30.20;57.60;;;;;;5057852;28;20021;-74
2022/09/12 12:37:24;;;;;;;1.80;1.33;;;30.20;57.60;;;;;;5039804;28;20366;-75
2022/09/12 12:39:59;;;;;;;2.22;1.40;;;30.20;57.50;;;;;;5047389;28;20428;-75
2022/09/12 12:42:40;;;;;;;1.55;1.40;;;30.30;57.60;;;;;;5041977;28;20054;-75
2022/09/12 12:45:11;;;;;;;3.47;1.70;;;30.40;57.50;;;;;;5037993;28;20031;-74
2022/09/12 12:47:37;;;;;;;2.22;1.38;;;30.50;57.50;;;;;;5046606;28;20045;-76
2022/09/12 12:50:28;;;;;;;2.00;1.13;;;30.60;57.30;;;;;;5044723;28;20032;-74
2022/09/12 12:53:02;;;;;;;4.10;1.40;;;30.60;57.00;;;;;;5042967;28;20426;-75
2022/09/12 12:55:48;;;;;;;1.48;1.17;;;30.80;56.90;;;;;;5039148;28;20036;-75
2022/09/12 12:58:38;;;;;;;1.70;1.27;;;30.90;57.00;;;;;;5050725;28;20088;-75
2022/09/12 13:01:16;;;;;;;2.05;1.52;;;31.00;56.30;;;;;;5066791;28;20057;-76
2022/09/12 13:03:59;;;;;;;3.85;1.80;;;31.20;56.10;;;;;;5066177;28;20056;-75
2022/09/12 13:06:54;;;;;;;2.95;1.52;;;31.20;55.90;;;;;;5079618;28;20051;-76
2022/09/12 13:09:26;;;;;;;1.95;1.23;;;31.30;55.70;;;;;;5065268;28;20118;-75
2022/09/12 13:12:25;;;;;;;3.50;1.70;;;31.30;55.90;;;;;;5064223;28;20060;-75
2022/09/12 13:15:33;;;;;;;3.80;1.30;;;31.20;55.60;;;;;;5049663;28;20124;-75
2022/09/12 13:18:06;;;;;;;4.07;1.80;;;31.00;55.60;;;;;;5024744;28;20456;-74
2022/09/12 13:20:37;;;;;;;1.75;1.13;;;30.80;55.90;;;;;;5037758;28;20572;-75
2022/09/12 13:23:03;;;;;;;1.92;1.40;;;30.70;56.00;;;;;;5045850;28;20021;-76